Time;durP1;ratioP1;P1;durP2;ratioP2;P2;SDS_P1;SDS_P2;PMS_P1;PMS_P2;Temp;Humidity;BMP_temperature;BMP_pressure;BME280_temperature;BME280_humidity;BME280_pressure;Samples;Min_cycle;Max_cycle;Signal;HPM_P1;HPM_P2
2023/08/04 00:00:01;;;;;;;6.77;2.80;;;;;;;14.81;100.00;100137.53;678699;29;1336;-61
2023/08/04 00:00:22;;;;;;;7.45;3.10;;;;;;;14.82;100.00;100141.91;677377;29;2377;-61
2023/08/04 00:00:42;;;;;;;7.70;3.20;;;;;;;14.86;100.00;100143.53;676770;29;4474;-61
2023/08/04 00:01:02;;;;;;;8.40;2.80;;;;;;;14.86;100.00;100145.31;678953;29;1390;-60
2023/08/04 00:01:23;;;;;;;6.63;2.93;;;;;;;14.81;100.00;100142.81;675403;29;1809;-60
2023/08/04 00:01:45;;;;;;;6.43;2.97;;;;;;;14.84;100.00;100140.06;679679;29;1378;-60
2023/08/04 00:02:06;;;;;;;6.78;3.17;;;;;;;14.80;100.00;100147.22;678107;29;1970;-61
2023/08/04 00:02:26;;;;;;;7.55;3.20;;;;;;;14.77;100.00;100143.81;679941;29;1269;-61
2023/08/04 00:02:47;;;;;;;7.00;2.90;;;;;;;14.75;100.00;100145.63;679361;29;1347;-61
2023/08/04 00:03:08;;;;;;;6.30;2.90;;;;;;;14.72;100.00;100143.09;678459;29;2252;-61
2023/08/04 00:03:28;;;;;;;7.22;2.97;;;;;;;14.72;100.00;100158.88;681371;29;1292;-60
2023/08/04 00:03:49;;;;;;;8.20;2.90;;;;;;;14.70;100.00;100145.75;681115;28;4349;-61
2023/08/04 00:04:09;;;;;;;6.73;2.80;;;;;;;14.72;100.00;100145.72;678212;29;1149;-61
2023/08/04 00:04:29;;;;;;;5.45;2.65;;;;;;;14.70;100.00;100150.16;678081;29;1296;-60
2023/08/04 00:04:52;;;;;;;4.73;2.80;;;;;;;14.77;100.00;100151.69;679033;29;1378;-61
2023/08/04 00:05:13;;;;;;;6.63;3.10;;;;;;;14.73;100.00;100148.31;677956;29;2341;-60
2023/08/04 00:05:34;;;;;;;8.07;2.60;;;;;;;14.66;100.00;100148.53;680618;29;1346;-61
2023/08/04 00:05:54;;;;;;;6.93;2.80;;;;;;;14.72;100.00;100151.00;681293;28;1235;-60
2023/08/04 00:06:14;;;;;;;6.90;2.50;;;;;;;14.70;100.00;100155.44;681346;28;2336;-61
2023/08/04 00:06:35;;;;;;;5.63;2.37;;;;;;;14.69;100.00;100151.06;680246;29;1441;-61
2023/08/04 00:06:55;;;;;;;8.93;2.60;;;;;;;14.66;100.00;100153.78;680168;29;4623;-61
2023/08/04 00:07:15;;;;;;;9.20;2.80;;;;;;;14.68;100.00;100158.09;681109;28;2006;-60
2023/08/04 00:07:36;;;;;;;5.70;2.70;;;;;;;14.70;100.00;100152.78;681860;29;1350;-60
2023/08/04 00:07:57;;;;;;;6.63;2.80;;;;;;;14.72;100.00;100151.00;678981;29;1326;-60
2023/08/04 00:08:17;;;;;;;7.17;2.80;;;;;;;14.70;100.00;100145.75;677300;29;1533;-60
2023/08/04 00:08:38;;;;;;;8.23;2.70;;;;;;;14.68;100.00;100155.47;678799;29;1487;-60
2023/08/04 00:08:58;;;;;;;7.85;2.40;;;;;;;14.67;100.00;100152.88;679605;29;1295;-61
2023/08/04 00:09:19;;;;;;;6.97;2.83;;;;;;;14.66;100.00;100151.16;677848;29;1891;-61
2023/08/04 00:09:39;;;;;;;9.10;2.70;;;;;;;14.60;100.00;100155.66;680305;29;4588;-61
2023/08/04 00:10:00;;;;;;;6.33;2.60;;;;;;;14.57;100.00;100155.75;680402;29;1498;-61
2023/08/04 00:10:20;;;;;;;6.23;2.57;;;;;;;14.57;100.00;100147.88;679813;28;2323;-61
2023/08/04 00:10:44;;;;;;;5.60;2.53;;;;;;;14.59;100.00;100159.22;680841;29;1540;-61
2023/08/04 00:11:04;;;;;;;5.80;2.50;;;;;;;14.59;100.00;100148.69;681180;29;1591;-61
2023/08/04 00:11:25;;;;;;;8.02;2.60;;;;;;;14.58;100.00;100153.97;680075;28;2187;-61
2023/08/04 00:11:45;;;;;;;8.30;2.87;;;;;;;14.57;100.00;100147.88;678579;29;1391;-61
2023/08/04 00:12:05;;;;;;;7.47;2.70;;;;;;;14.55;100.00;100152.31;679044;29;1351;-61
2023/08/04 00:12:26;;;;;;;6.00;2.50;;;;;;;14.56;100.00;100154.03;678360;29;1343;-61
2023/08/04 00:12:46;;;;;;;7.20;2.20;;;;;;;14.56;100.00;100158.44;677481;29;4473;-60
2023/08/04 00:13:07;;;;;;;6.20;2.50;;;;;;;14.57;100.00;100152.28;677540;29;1957;-61
2023/08/04 00:13:27;;;;;;;5.00;2.50;;;;;;;14.53;100.00;100148.84;679326;29;1422;-60
2023/08/04 00:13:48;;;;;;;7.18;2.35;;;;;;;14.51;100.00;100149.81;677814;29;1246;-61
2023/08/04 00:14:09;;;;;;;6.60;2.30;;;;;;;14.51;100.00;100150.69;677807;29;2306;-61
2023/08/04 00:14:29;;;;;;;6.80;2.53;;;;;;;14.52;100.00;100151.53;678679;28;1435;-61
2023/08/04 00:14:50;;;;;;;8.13;2.57;;;;;;;14.50;100.00;100154.22;679214;29;1316;-60
2023/08/04 00:15:10;;;;;;;8.50;2.40;;;;;;;14.49;100.00;100149.84;679970;29;1739;-61
2023/08/04 00:15:30;;;;;;;4.83;2.30;;;;;;;14.47;100.00;100146.44;681173;29;1311;-60
2023/08/04 00:15:51;;;;;;;7.37;2.40;;;;;;;14.48;100.00;100156.00;680216;28;4406;-60
2023/08/04 00:16:11;;;;;;;7.28;2.70;;;;;;;14.47;100.00;100154.31;676664;29;3666;-60
2023/08/04 00:16:33;;;;;;;8.43;2.70;;;;;;;14.46;100.00;100147.31;678020;29;1534;-60
2023/08/04 00:16:53;;;;;;;10.43;2.80;;;;;;;14.47;100.00;100149.91;677757;29;1307;-61
2023/08/04 00:17:14;;;;;;;7.30;2.70;;;;;;;14.47;100.00;100149.91;678322;29;1526;-60
2023/08/04 00:17:37;;;;;;;8.80;2.80;;;;;;;14.49;100.00;100144.59;675045;29;1517;-61
2023/08/04 00:17:58;;;;;;;6.38;2.40;;;;;;;14.51;100.00;100149.81;677158;29;1296;-62
2023/08/04 00:18:18;;;;;;;5.93;2.28;;;;;;;14.51;100.00;100147.19;678560;29;2477;-61
2023/08/04 00:18:39;;;;;;;6.67;2.63;;;;;;;14.49;100.00;100147.22;678227;29;4413;-63
2023/08/04 00:18:59;;;;;;;8.02;2.88;;;;;;;14.51;100.00;100153.31;676396;29;1335;-61
2023/08/04 00:19:19;;;;;;;9.57;2.93;;;;;;;14.50;100.00;100148.97;675256;29;1715;-62
2023/08/04 00:19:41;;;;;;;6.33;2.70;;;;;;;14.51;100.00;100144.53;678189;29;1272;-60
2023/08/04 00:20:03;;;;;;;6.10;2.50;;;;;;;14.50;100.00;100148.97;679102;29;1204;-61
2023/08/04 00:20:23;;;;;;;6.93;2.40;;;;;;;14.52;100.00;100146.28;678119;29;2284;-61
2023/08/04 00:20:43;;;;;;;6.83;2.70;;;;;;;14.51;100.00;100142.78;679786;29;1370;-61
2023/08/04 00:21:04;;;;;;;6.53;2.53;;;;;;;14.50;100.00;100146.31;681968;29;1195;-61
2023/08/04 00:21:24;;;;;;;5.87;2.47;;;;;;;14.50;100.00;100148.09;678222;29;1720;-60
2023/08/04 00:21:45;;;;;;;4.25;2.20;;;;;;;14.50;100.00;100142.84;678434;29;4379;-61
2023/08/04 00:22:05;;;;;;;4.70;2.47;;;;;;;14.50;100.00;100142.84;676959;29;1235;-62
2023/08/04 00:22:25;;;;;;;4.93;2.50;;;;;;;14.51;100.00;100147.19;675275;29;1890;-61
2023/08/04 00:22:46;;;;;;;6.50;2.38;;;;;;;14.50;100.00;100146.31;676983;29;1324;-61
2023/08/04 00:23:06;;;;;;;7.53;3.00;;;;;;;14.52;100.00;100146.28;677557;29;1756;-62
2023/08/04 00:23:27;;;;;;;6.30;2.95;;;;;;;14.52;100.00;100143.66;679009;29;1283;-61
2023/08/04 00:23:47;;;;;;;7.73;2.60;;;;;;;14.52;100.00;100139.25;681100;29;1350;-61
2023/08/04 00:24:07;;;;;;;7.83;2.50;;;;;;;14.52;100.00;100149.75;681311;28;2176;-61
2023/08/04 00:24:28;;;;;;;6.77;2.40;;;;;;;14.51;100.00;100144.53;681835;29;1353;-61
2023/08/04 00:24:48;;;;;;;6.63;2.43;;;;;;;14.50;100.00;100143.69;680925;28;4351;-60
2023/08/04 00:25:09;;;;;;;7.95;3.25;;;;;;;14.50;100.00;100138.44;680704;28;1758;-61
2023/08/04 00:25:29;;;;;;;5.70;2.43;;;;;;;14.50;100.00;100143.69;681675;29;1302;-61
2023/08/04 00:25:49;;;;;;;6.65;2.30;;;;;;;14.50;100.00;100142.84;678743;29;1347;-61
2023/08/04 00:26:10;;;;;;;7.77;2.40;;;;;;;14.48;100.00;100146.38;678075;29;1592;-61
2023/08/04 00:26:32;;;;;;;7.68;2.60;;;;;;;14.50;100.00;100142.84;679154;29;1327;-60
2023/08/04 00:26:52;;;;;;;6.43;2.60;;;;;;;14.50;100.00;100146.31;678768;29;1299;-60
2023/08/04 00:27:13;;;;;;;8.77;2.70;;;;;;;14.52;100.00;100147.13;676920;29;1394;-60
2023/08/04 00:27:35;;;;;;;10.70;2.75;;;;;;;14.59;100.00;100139.91;677451;29;1354;-60
2023/08/04 00:27:55;;;;;;;8.27;2.42;;;;;;;14.60;100.00;100141.66;674855;29;4562;-61
2023/08/04 00:28:15;;;;;;;5.93;2.50;;;;;;;14.61;100.00;100146.88;676404;29;2406;-61
2023/08/04 00:28:36;;;;;;;5.80;2.40;;;;;;;14.60;100.00;100145.13;677404;29;1628;-60
2023/08/04 00:28:56;;;;;;;6.95;2.33;;;;;;;14.58;100.00;100146.97;676813;29;1324;-60
2023/08/04 00:29:16;;;;;;;7.57;2.23;;;;;;;14.58;100.00;100146.97;675337;29;2529;-62
2023/08/04 00:29:37;;;;;;;7.67;2.43;;;;;;;14.57;100.00;100147.88;676471;29;1996;-61
2023/08/04 00:29:57;;;;;;;6.80;2.53;;;;;;;14.57;100.00;100150.50;678982;29;1379;-61
2023/08/04 00:30:18;;;;;;;5.87;2.50;;;;;;;14.56;100.00;100148.75;678045;29;1239;-60
2023/08/04 00:30:38;;;;;;;5.10;2.47;;;;;;;14.58;100.00;100146.97;678410;29;4940;-61
2023/08/04 00:30:58;;;;;;;6.80;2.50;;;;;;;14.61;100.00;100152.13;679313;29;1470;-60
2023/08/04 00:31:19;;;;;;;6.53;2.30;;;;;;;14.61;100.00;100152.13;677836;29;2543;-61
2023/08/04 00:31:39;;;;;;;5.70;2.60;;;;;;;14.60;100.00;100144.28;678577;29;1596;-61
2023/08/04 00:31:59;;;;;;;4.97;2.27;;;;;;;14.59;100.00;100153.06;678351;29;1494;-61
2023/08/04 00:32:21;;;;;;;5.65;2.40;;;;;;;14.56;100.00;100151.38;678474;29;1855;-61
2023/08/04 00:32:41;;;;;;;7.13;2.72;;;;;;;14.54;100.00;100149.72;678252;29;1358;-62
2023/08/04 00:33:02;;;;;;;8.07;2.75;;;;;;;14.53;100.00;100148.84;678537;29;1392;-61
2023/08/04 00:33:22;;;;;;;7.37;2.43;;;;;;;14.54;100.00;100152.34;677352;29;1109;-61
2023/08/04 00:33:43;;;;;;;6.88;2.92;;;;;;;14.52;100.00;100155.00;677326;29;4547;-61
2023/08/04 00:34:05;;;;;;;6.07;2.93;;;;;;;14.56;100.00;100153.16;678208;29;1212;-61
2023/08/04 00:34:25;;;;;;;4.88;2.50;;;;;;;14.67;100.00;100150.25;676811;29;1546;-61
2023/08/04 00:34:46;;;;;;;6.93;2.60;;;;;;;14.69;100.00;100151.94;679165;29;1610;-61
2023/08/04 00:35:06;;;;;;;7.27;2.50;;;;;;;14.67;100.00;100150.25;678502;28;2992;-63
2023/08/04 00:35:27;;;;;;;6.38;2.30;;;;;;;14.64;100.00;100152.06;681266;28;1385;-61
2023/08/04 00:35:47;;;;;;;5.07;2.20;;;;;;;14.60;100.00;100149.53;681424;29;1323;-62
2023/08/04 00:36:07;;;;;;;5.95;2.38;;;;;;;14.57;100.00;100147.88;678754;28;1653;-61
2023/08/04 00:36:28;;;;;;;8.57;3.10;;;;;;;14.59;100.00;100148.69;680419;28;1203;-61
2023/08/04 00:36:48;;;;;;;5.60;2.55;;;;;;;14.57;100.00;100153.13;681579;29;4316;-61
2023/08/04 00:37:09;;;;;;;6.20;2.47;;;;;;;14.56;100.00;100153.16;680140;28;1858;-61
2023/08/04 00:37:29;;;;;;;7.80;2.60;;;;;;;14.55;100.00;100148.81;680928;29;1377;-61
2023/08/04 00:37:49;;;;;;;6.65;2.55;;;;;;;14.54;100.00;100147.97;680683;28;1373;-61
2023/08/04 00:38:10;;;;;;;4.95;2.47;;;;;;;14.52;100.00;100152.38;677384;29;2206;-61
2023/08/04 00:38:33;;;;;;;5.77;2.30;;;;;;;14.53;100.00;100158.53;678057;29;1178;-61
2023/08/04 00:38:53;;;;;;;4.78;2.17;;;;;;;14.52;100.00;100152.38;676113;29;5554;-61
2023/08/04 00:39:14;;;;;;;5.53;2.50;;;;;;;14.52;100.00;100156.78;675464;29;2281;-61
2023/08/04 00:39:34;;;;;;;8.05;2.45;;;;;;;14.54;100.00;100154.97;673807;29;1542;-60
2023/08/04 00:39:55;;;;;;;7.13;2.50;;;;;;;14.52;100.00;100155.00;675219;29;4440;-60
2023/08/04 00:40:15;;;;;;;5.78;2.60;;;;;;;14.52;100.00;100155.00;672991;29;1831;-61
2023/08/04 00:40:36;;;;;;;5.20;2.50;;;;;;;14.52;100.00;100156.78;675330;29;1507;-61
2023/08/04 00:40:56;;;;;;;6.70;2.42;;;;;;;14.51;100.00;100150.69;676919;29;1458;-61
2023/08/04 00:41:17;;;;;;;7.93;2.55;;;;;;;14.51;100.00;100155.06;677135;29;2410;-61
2023/08/04 00:41:37;;;;;;;7.40;2.70;;;;;;;14.51;100.00;100158.56;679594;29;1299;-60
2023/08/04 00:41:58;;;;;;;5.85;2.50;;;;;;;14.50;100.00;100156.00;677962;29;1477;-60
2023/08/04 00:42:18;;;;;;;5.70;2.50;;;;;;;14.49;100.00;100163.00;673669;29;1777;-61
2023/08/04 00:42:38;;;;;;;5.60;2.50;;;;;;;14.48;100.00;100156.00;674472;29;4447;-61
2023/08/04 00:43:00;;;;;;;5.40;2.22;;;;;;;14.50;100.00;100163.88;678180;29;1350;-60
2023/08/04 00:43:21;;;;;;;6.45;2.35;;;;;;;14.51;100.00;100158.56;675726;29;1869;-60
2023/08/04 00:43:41;;;;;;;6.33;2.60;;;;;;;14.52;100.00;100164.69;677899;29;1212;-61
2023/08/04 00:44:02;;;;;;;6.28;2.53;;;;;;;14.52;100.00;100159.44;675520;29;1363;-61
2023/08/04 00:44:23;;;;;;;6.15;2.53;;;;;;;14.52;100.00;100157.66;672617;29;1709;-62
2023/08/04 00:44:43;;;;;;;7.77;2.30;;;;;;;14.51;100.00;100155.94;672667;29;1395;-61
2023/08/04 00:45:05;;;;;;;6.30;2.20;;;;;;;14.51;100.00;100163.84;674332;29;1398;-61
2023/08/04 00:45:28;;;;;;;5.40;2.40;;;;;;;14.51;100.00;100161.22;673148;29;2177;-61
2023/08/04 00:45:49;;;;;;;5.40;2.50;;;;;;;14.50;100.00;100164.75;676384;29;4565;-60
2023/08/04 00:46:09;;;;;;;6.17;2.63;;;;;;;14.50;100.00;100161.25;676709;28;1984;-61
2023/08/04 00:46:30;;;;;;;6.32;2.50;;;;;;;14.50;100.00;100162.09;677909;29;1280;-61
2023/08/04 00:46:51;;;;;;;5.73;2.20;;;;;;;14.49;100.00;100163.00;674124;29;1444;-60
2023/08/04 00:47:12;;;;;;;7.68;2.55;;;;;;;14.50;100.00;100164.75;673122;29;1398;-60
2023/08/04 00:47:37;;;;;;;6.67;2.60;;;;;;;14.50;100.00;100163.88;673844;29;1300;-61
2023/08/04 00:47:59;;;;;;;5.18;2.40;;;;;;;14.50;100.00;100166.50;674068;29;1374;-61
2023/08/04 00:48:20;;;;;;;5.88;2.15;;;;;;;14.55;100.00;100161.97;673024;29;2023;-61
2023/08/04 00:48:40;;;;;;;7.25;2.40;;;;;;;14.64;100.00;100165.22;672066;29;4547;-61
2023/08/04 00:49:02;;;;;;;6.40;2.40;;;;;;;14.64;100.00;100167.84;674995;29;1644;-63
2023/08/04 00:49:23;;;;;;;7.28;2.60;;;;;;;14.61;100.00;100170.53;674924;29;2514;-60
2023/08/04 00:49:45;;;;;;;5.53;2.27;;;;;;;14.57;100.00;100171.53;676123;29;1408;-62
2023/08/04 00:50:07;;;;;;;6.90;2.65;;;;;;;14.57;100.00;100168.06;678305;29;1453;-61
2023/08/04 00:50:29;;;;;;;6.50;2.55;;;;;;;14.55;100.00;100176.00;678191;29;1264;-61
2023/08/04 00:50:49;;;;;;;6.22;2.50;;;;;;;14.54;100.00;100168.13;678015;29;1297;-61
2023/08/04 00:51:09;;;;;;;6.07;2.40;;;;;;;14.51;100.00;100168.22;677940;29;2372;-60
2023/08/04 00:51:31;;;;;;;5.43;2.53;;;;;;;14.50;100.00;100175.25;679208;29;1339;-61
2023/08/04 00:51:51;;;;;;;7.85;3.10;;;;;;;14.49;100.00;100176.16;677913;28;4608;-61
2023/08/04 00:52:12;;;;;;;6.03;2.22;;;;;;;14.50;100.00;100175.25;677861;29;2239;-60
2023/08/04 00:52:32;;;;;;;6.60;2.30;;;;;;;14.55;100.00;100173.38;676673;29;1292;-61
2023/08/04 00:52:53;;;;;;;7.32;2.30;;;;;;;14.54;100.00;100171.63;675342;29;1399;-60
2023/08/04 00:53:17;;;;;;;6.88;2.60;;;;;;;14.60;100.00;100171.44;673176;29;2798;-62
2023/08/04 00:53:38;;;;;;;6.88;2.50;;;;;;;14.59;100.00;100171.47;674375;29;1344;-61
2023/08/04 00:53:59;;;;;;;7.45;2.65;;;;;;;14.57;100.00;100173.31;673914;29;1549;-61
2023/08/04 00:54:22;;;;;;;8.93;2.75;;;;;;;14.55;100.00;100175.13;673807;29;1495;-61
2023/08/04 00:54:45;;;;;;;6.85;2.55;;;;;;;14.53;100.00;100174.31;678175;29;4640;-61
2023/08/04 00:55:08;;;;;;;5.53;2.30;;;;;;;14.53;100.00;100171.69;679663;29;1465;-61
2023/08/04 00:55:28;;;;;;;5.78;2.30;;;;;;;14.52;100.00;100178.69;681109;29;1251;-61
2023/08/04 00:55:49;;;;;;;5.20;2.25;;;;;;;14.53;100.00;100172.53;678973;28;1339;-61
2023/08/04 00:56:09;;;;;;;4.83;2.30;;;;;;;14.52;100.00;100170.78;675746;29;2695;-60
2023/08/04 00:56:31;;;;;;;5.05;2.28;;;;;;;14.50;100.00;100175.25;676897;29;1310;-61
2023/08/04 00:56:52;;;;;;;5.57;2.40;;;;;;;14.54;100.00;100169.00;674013;29;1360;-61
2023/08/04 00:57:13;;;;;;;6.65;2.50;;;;;;;14.56;100.00;100175.06;674674;29;2429;-61
2023/08/04 00:57:36;;;;;;;5.60;2.42;;;;;;;14.67;100.00;100173.94;674095;29;1288;-60
2023/08/04 00:57:56;;;;;;;4.95;2.50;;;;;;;14.70;100.00;100168.56;673284;29;4346;-62
2023/08/04 00:58:17;;;;;;;4.80;2.30;;;;;;;14.67;100.00;100176.56;672183;29;1876;-61
2023/08/04 00:58:38;;;;;;;6.13;2.33;;;;;;;14.66;100.00;100180.94;674715;29;1522;-60
2023/08/04 00:58:58;;;;;;;5.47;2.30;;;;;;;14.66;100.00;100172.22;674251;29;1581;-61
2023/08/04 00:59:18;;;;;;;6.20;2.38;;;;;;;14.70;100.00;100171.22;671640;29;1814;-60
2023/08/04 00:59:39;;;;;;;4.90;2.40;;;;;;;14.69;100.00;100174.75;673347;29;1543;-60
2023/08/04 01:00:00;;;;;;;5.32;2.20;;;;;;;14.66;100.00;100177.47;673987;29;1826;-61
2023/08/04 01:00:20;;;;;;;6.17;2.63;;;;;;;14.61;100.00;100169.69;674989;29;1718;-61
2023/08/04 01:00:40;;;;;;;6.40;2.67;;;;;;;14.59;100.00;100175.00;675847;29;4817;-61
2023/08/04 01:01:01;;;;;;;7.37;2.47;;;;;;;14.57;100.00;100170.69;678765;29;1621;-61
2023/08/04 01:01:21;;;;;;;8.32;2.40;;;;;;;14.54;100.00;100169.00;672151;29;2301;-60
2023/08/04 01:01:42;;;;;;;6.80;2.57;;;;;;;14.52;100.00;100176.06;668228;29;1115;-61
2023/08/04 01:02:03;;;;;;;7.05;2.70;;;;;;;14.52;100.00;100172.56;671440;29;1269;-62
2023/08/04 01:02:24;;;;;;;5.47;2.58;;;;;;;14.50;100.00;100171.78;669982;29;2395;-61
2023/08/04 01:02:44;;;;;;;6.05;2.75;;;;;;;14.54;100.00;100176.88;669189;29;1480;-61
2023/08/04 01:03:05;;;;;;;6.03;2.80;;;;;;;14.53;100.00;100169.91;669762;29;1421;-61
2023/08/04 01:03:27;;;;;;;5.93;2.67;;;;;;;14.54;100.00;100170.75;673055;29;1758;-61
2023/08/04 01:03:48;;;;;;;6.95;2.72;;;;;;;14.52;100.00;100170.78;677770;29;4495;-61
2023/08/04 01:04:08;;;;;;;8.27;2.70;;;;;;;14.52;100.00;100169.94;675653;29;1790;-61
2023/08/04 01:04:29;;;;;;;7.57;3.07;;;;;;;14.53;100.00;100175.16;677172;29;1304;-61
2023/08/04 01:04:50;;;;;;;6.45;2.70;;;;;;;14.53;100.00;100174.31;679373;29;1504;-60
2023/08/04 01:05:10;;;;;;;6.35;2.60;;;;;;;14.51;100.00;100177.00;675562;29;2476;-61
2023/08/04 01:05:39;;;;;;;7.47;2.42;;;;;;;14.50;100.00;100175.25;676313;29;1335;-61
2023/08/04 01:06:05;;;;;;;6.90;2.60;;;;;;;14.50;100.00;100174.41;677030;29;1276;-62
2023/08/04 01:06:39;;;;;;;5.47;2.38;;;;;;;14.49;100.00;100178.78;677961;29;2163;-63
2023/08/04 01:07:12;;;;;;;7.95;2.63;;;;;;;14.56;100.00;100180.31;675436;29;4788;-62
2023/08/04 01:07:45;;;;;;;6.05;2.60;;;;;;;14.55;100.00;100181.25;673459;29;2249;-63
2023/08/04 01:08:17;;;;;;;5.22;2.40;;;;;;;14.53;100.00;100180.41;673092;29;1257;-63
2023/08/04 01:08:48;;;;;;;8.50;2.97;;;;;;;14.50;100.00;100175.25;672906;29;1296;-63
2023/08/04 01:09:27;;;;;;;8.50;2.67;;;;;;;14.55;100.00;100178.63;673964;29;2954;-63
2023/08/04 01:10:11;;;;;;;6.32;2.40;;;;;;;14.50;100.00;100185.78;678374;28;4533;-63
2023/08/04 01:10:40;;;;;;;8.23;2.80;;;;;;;14.47;100.00;100186.72;677565;29;992;-61
2023/08/04 01:11:09;;;;;;;7.75;2.78;;;;;;;14.47;100.00;100183.25;679457;29;1502;-61
2023/08/04 01:11:33;;;;;;;8.30;2.60;;;;;;;14.48;100.00;100183.19;678789;29;1272;-60
2023/08/04 01:12:03;;;;;;;5.90;2.60;;;;;;;14.57;100.00;100181.22;677776;29;1560;-60
2023/08/04 01:12:40;;;;;;;6.07;2.50;;;;;;;14.65;100.00;100184.50;677630;29;3582;-64
2023/08/04 01:13:04;;;;;;;7.40;2.75;;;;;;;14.60;100.00;100183.75;679695;29;5102;-61
2023/08/04 01:13:27;;;;;;;7.10;2.80;;;;;;;14.55;100.00;100180.38;678635;29;2034;-61
2023/08/04 01:13:49;;;;;;;6.68;2.38;;;;;;;14.49;100.00;100184.03;678940;29;1303;-60
2023/08/04 01:14:10;;;;;;;5.60;2.40;;;;;;;14.51;100.00;100182.25;678168;29;1803;-60
2023/08/04 01:14:31;;;;;;;6.40;2.65;;;;;;;14.52;100.00;100185.72;677575;29;1292;-61
2023/08/04 01:14:53;;;;;;;7.47;2.58;;;;;;;14.47;100.00;100186.72;678423;29;1392;-60
2023/08/04 01:15:15;;;;;;;7.40;2.58;;;;;;;14.44;100.00;100183.31;679206;29;1676;-62
2023/08/04 01:15:36;;;;;;;8.13;2.45;;;;;;;14.44;100.00;100181.56;676893;29;1547;-60
2023/08/04 01:15:57;;;;;;;7.60;2.50;;;;;;;14.42;100.00;100179.88;674075;29;4359;-60
2023/08/04 01:16:18;;;;;;;5.57;2.30;;;;;;;14.42;100.00;100185.13;674843;29;2399;-61
2023/08/04 01:16:38;;;;;;;6.00;2.60;;;;;;;14.43;100.00;100184.22;680422;29;1427;-60
2023/08/04 01:17:03;;;;;;;6.00;2.50;;;;;;;14.41;100.00;100183.41;679776;29;1553;-60
2023/08/04 01:17:28;;;;;;;7.10;2.50;;;;;;;14.43;100.00;100186.88;680039;29;1504;-62
2023/08/04 01:17:49;;;;;;;6.25;2.50;;;;;;;14.43;100.00;100187.72;679627;29;1303;-62
2023/08/04 01:18:09;;;;;;;6.60;2.50;;;;;;;14.47;100.00;100188.50;676381;29;2036;-62
2023/08/04 01:18:30;;;;;;;6.10;2.80;;;;;;;14.48;100.00;100184.94;677760;29;1363;-62
2023/08/04 01:18:51;;;;;;;5.43;2.40;;;;;;;14.47;100.00;100185.88;677239;29;4848;-63
2023/08/04 01:19:12;;;;;;;7.35;2.65;;;;;;;14.43;100.00;100189.50;676146;29;2300;-60
2023/08/04 01:19:33;;;;;;;7.47;2.58;;;;;;;14.51;100.00;100190.13;677682;29;1332;-63
2023/08/04 01:19:54;;;;;;;5.63;2.67;;;;;;;14.51;100.00;100181.38;680483;29;1426;-63
2023/08/04 01:20:14;;;;;;;6.22;2.50;;;;;;;14.51;100.00;100186.63;680899;29;2478;-62
2023/08/04 01:20:35;;;;;;;5.87;2.60;;;;;;;14.46;100.00;100190.25;682140;29;1450;-62
2023/08/04 01:20:59;;;;;;;6.20;2.40;;;;;;;14.44;100.00;100186.81;682353;28;1343;-62
2023/08/04 01:21:19;;;;;;;6.95;2.50;;;;;;;14.41;100.00;100188.66;680728;28;1259;-60
2023/08/04 01:21:41;;;;;;;6.33;2.50;;;;;;;14.41;100.00;100186.91;679740;29;4343;-63
2023/08/04 01:22:02;;;;;;;6.32;3.00;;;;;;;14.36;100.00;100183.53;679806;29;1226;-62
2023/08/04 01:22:24;;;;;;;6.63;2.90;;;;;;;14.37;100.00;100189.66;677369;29;2510;-64
2023/08/04 01:22:44;;;;;;;7.10;2.95;;;;;;;14.34;100.00;100184.47;680398;29;1152;-63
2023/08/04 01:23:05;;;;;;;6.63;2.73;;;;;;;14.33;100.00;100188.00;677620;29;1411;-62
2023/08/04 01:23:26;;;;;;;6.57;2.90;;;;;;;14.31;100.00;100191.53;676080;29;1185;-60
2023/08/04 01:23:46;;;;;;;7.18;2.80;;;;;;;14.26;100.00;100184.69;677747;29;1386;-60
2023/08/04 01:24:07;;;;;;;7.00;2.70;;;;;;;14.25;100.00;100185.63;677738;29;1212;-61
2023/08/04 01:24:27;;;;;;;6.75;2.50;;;;;;;14.23;100.00;100187.41;675282;29;1836;-60
2023/08/04 01:24:49;;;;;;;7.03;2.50;;;;;;;14.24;100.00;100189.13;675581;29;4626;-60
2023/08/04 01:25:09;;;;;;;7.20;2.70;;;;;;;14.25;100.00;100185.63;676714;29;2141;-61
2023/08/04 01:25:33;;;;;;;7.53;2.80;;;;;;;14.25;100.00;100186.47;680136;29;1327;-60
2023/08/04 01:25:54;;;;;;;7.15;2.83;;;;;;;14.33;100.00;100186.25;677655;29;2104;-60
2023/08/04 01:26:14;;;;;;;6.45;2.42;;;;;;;14.30;100.00;100184.56;676776;29;2333;-61
2023/08/04 01:26:41;;;;;;;7.47;2.57;;;;;;;14.30;100.00;100184.56;679965;29;1390;-61
2023/08/04 01:27:01;;;;;;;5.57;2.70;;;;;;;14.44;100.00;100191.19;678411;29;962;-60
2023/08/04 01:27:42;;;;;;;6.85;2.53;;;;;;;14.44;100.00;100188.56;676988;29;1911;-60
2023/08/04 01:28:09;;;;;;;7.00;2.50;;;;;;;14.40;100.00;100194.81;681774;29;6177;-60
2023/08/04 01:28:33;;;;;;;5.88;2.72;;;;;;;14.37;100.00;100189.66;679072;29;1340;-60
2023/08/04 01:28:53;;;;;;;7.18;2.63;;;;;;;14.35;100.00;100186.22;677211;29;1336;-60
2023/08/04 01:29:20;;;;;;;7.78;2.60;;;;;;;14.34;100.00;100187.13;674096;29;2880;-60
2023/08/04 01:29:45;;;;;;;6.97;2.28;;;;;;;14.29;100.00;100182.84;672964;29;1929;-61
2023/08/04 01:30:09;;;;;;;5.25;2.30;;;;;;;14.28;100.00;100186.38;672105;29;1380;-61
2023/08/04 01:30:32;;;;;;;6.88;2.60;;;;;;;14.30;100.00;100194.22;674075;29;1363;-62
2023/08/04 01:30:55;;;;;;;6.03;2.42;;;;;;;14.26;100.00;100188.19;676543;29;4432;-60
2023/08/04 01:31:17;;;;;;;7.07;2.75;;;;;;;14.27;100.00;100189.94;676146;29;2289;-60
2023/08/04 01:31:38;;;;;;;6.30;2.73;;;;;;;14.24;100.00;100179.47;677246;29;1518;-61
2023/08/04 01:31:59;;;;;;;6.32;2.55;;;;;;;14.33;100.00;100188.00;674103;29;1487;-61
2023/08/04 01:32:19;;;;;;;6.90;2.72;;;;;;;14.33;100.00;100188.00;675042;29;1461;-61
2023/08/04 01:32:40;;;;;;;7.87;2.93;;;;;;;14.29;100.00;100189.88;672212;29;1325;-62
2023/08/04 01:33:01;;;;;;;7.85;3.10;;;;;;;14.24;100.00;100187.34;672826;29;1570;-61
2023/08/04 01:33:22;;;;;;;7.18;2.88;;;;;;;14.22;100.00;100186.56;674448;29;1721;-60
2023/08/04 01:33:42;;;;;;;6.28;2.67;;;;;;;14.23;100.00;100183.03;676591;29;4398;-61
2023/08/04 01:34:03;;;;;;;6.23;2.53;;;;;;;14.34;100.00;100187.97;677717;29;1450;-61
2023/08/04 01:34:24;;;;;;;6.65;2.70;;;;;;;14.36;100.00;100188.78;673903;29;1770;-61
2023/08/04 01:34:49;;;;;;;6.38;2.70;;;;;;;14.30;100.00;100189.84;676974;29;1284;-61
2023/08/04 01:35:09;;;;;;;6.22;2.70;;;;;;;14.25;100.00;100186.47;674006;29;2841;-60
2023/08/04 01:35:30;;;;;;;6.43;2.55;;;;;;;14.21;100.00;100182.19;674975;29;1325;-61
2023/08/04 01:35:52;;;;;;;5.70;2.33;;;;;;;14.19;100.00;100191.91;675465;29;1513;-60
2023/08/04 01:36:13;;;;;;;5.75;2.60;;;;;;;14.18;100.00;100189.28;677860;29;2708;-61
2023/08/04 01:36:33;;;;;;;6.97;2.80;;;;;;;14.18;100.00;100184.91;672221;29;1355;-61
2023/08/04 01:36:54;;;;;;;7.85;2.80;;;;;;;14.18;100.00;100179.66;672124;29;4369;-60
2023/08/04 01:37:14;;;;;;;6.60;2.77;;;;;;;14.16;100.00;100186.69;674619;29;1399;-60
2023/08/04 01:37:35;;;;;;;6.38;2.58;;;;;;;14.17;100.00;100183.19;673717;29;1305;-60
2023/08/04 01:37:55;;;;;;;5.90;2.67;;;;;;;14.21;100.00;100187.44;673877;29;1355;-61
2023/08/04 01:38:16;;;;;;;6.78;2.72;;;;;;;14.24;100.00;100189.97;674236;29;1813;-61
2023/08/04 01:38:36;;;;;;;6.60;2.73;;;;;;;14.21;100.00;100184.81;678357;29;1554;-61
2023/08/04 01:38:58;;;;;;;6.35;3.00;;;;;;;14.25;100.00;100186.47;678114;29;5750;-61
2023/08/04 01:39:19;;;;;;;6.75;2.80;;;;;;;14.38;100.00;100188.75;675693;29;1829;-60
2023/08/04 01:39:39;;;;;;;5.20;2.60;;;;;;;14.40;100.00;100186.94;674614;29;4491;-62
2023/08/04 01:39:59;;;;;;;5.25;2.72;;;;;;;14.35;100.00;100191.47;671926;29;1509;-60
2023/08/04 01:40:20;;;;;;;6.33;2.70;;;;;;;14.31;100.00;100182.78;669125;29;2280;-61
2023/08/04 01:40:40;;;;;;;6.40;2.70;;;;;;;14.45;100.00;100192.94;671889;29;1495;-60
2023/08/04 01:41:01;;;;;;;6.87;2.57;;;;;;;14.45;100.00;100192.94;670088;29;1497;-61
2023/08/04 01:41:21;;;;;;;5.63;2.60;;;;;;;14.39;100.00;100193.97;671893;29;2819;-61
2023/08/04 01:41:43;;;;;;;5.75;2.65;;;;;;;14.31;100.00;100191.53;673112;29;1399;-60